Latest Weather Observations for Geelong Racecourse

IDV60901

Issued at 10:25 pm EDT Wednesday 26 November 2014 (issued every 10 minutes, with the page automatically refreshed every 10 minutes)

About weather observations | Map of Melbourne area stations | Latest observations for Melbourne area | Other Formats
Station Details ID: 087184 Name: GEELONG RACECOURSE Lat: -38.17 Lon: 144.38 Height: 12.9 m
Data from the previous 72 hours. | See also: Recent months at Geelong Racecourse
Date/Time
EDT
Tmp

°C
App
Tmp
°C
Dew
Point
°C
Rel
Hum
%
Delta-T

°C
Wind Press
QNH
hPa
Press
MSL
hPa
Rain
since
9 am
mm
Dir
 
Spd
km/h
Gust
km/h
Spd
kts
Gust
kts
26/10:00pm 13.7 10.0 7.9 68 2.9 S 17 24 9 13 1024.5 1024.5 0.0
26/09:30pm 13.9 10.3 8.3 69 2.8 S 17 24 9 13 1024.2 1024.2 0.0
26/09:00pm 13.9 10.8 8.7 71 2.6 S 15 20 8 11 1023.9 1023.9 0.0
26/08:30pm 14.1 10.6 8.7 70 2.7 S 17 28 9 15 1023.7 1023.7 0.0
26/08:00pm 14.1 9.6 8.5 69 2.8 S 22 32 12 17 1023.5 1023.5 0.0
26/07:30pm 14.6 10.2 8.8 68 2.9 S 22 32 12 17 1023.4 1023.4 0.0
26/07:00pm 15.1 9.9 8.8 66 3.2 S 26 33 14 18 1022.9 1022.9 0.0
26/06:30pm 15.2 10.0 8.9 66 3.2 S 26 33 14 18 1022.6 1022.6 0.0
26/06:00pm 15.6 11.2 9.1 65 3.3 S 22 35 12 19 1022.4 1022.4 0.0
26/05:30pm 15.7 11.3 9.1 65 3.4 S 22 35 12 19 1022.4 1022.4 0.0
26/05:00pm 15.6 11.4 9.7 68 3.1 S 22 32 12 17 1022.3 1022.3 0.0
26/04:30pm 15.9 12.2 10.2 69 3.0 S 20 30 11 16 1022.3 1022.3 0.0
26/04:00pm 16.3 12.7 10.6 69 3.0 S 20 30 11 16 1022.3 1022.3 0.0
26/03:30pm 14.8 12.0 12.5 86 1.3 S 19 24 10 13 1022.3 1022.3 0.0
26/03:00pm 14.6 11.5 13.3 92 0.7 S 22 28 12 15 1022.3 1022.3 0.0
26/02:30pm 15.0 11.6 13.7 92 0.7 S 24 30 13 16 1022.2 1022.2 0.0
26/02:00pm 15.9 12.0 13.2 84 1.5 S 26 33 14 18 1022.0 1022.0 0.0
26/01:30pm 17.0 13.4 11.7 71 2.9 S 22 30 12 16 1021.6 1021.6 0.0
26/01:00pm 18.6 15.3 9.7 56 4.7 WSW 17 22 9 12 1021.4 1021.4 0.0
26/12:30pm 19.6 16.4 9.8 53 5.2 WSW 17 30 9 16 1021.3 1021.3 0.0
26/12:00pm 19.6 16.8 10.0 54 5.1 SW 15 24 8 13 1021.4 1021.4 0.0
26/11:30am 18.5 15.3 9.8 57 4.6 WSW 17 26 9 14 1021.5 1021.5 0.0
26/11:00am 18.4 14.7 9.5 56 4.7 WSW 19 28 10 15 1021.5 1021.5 0.0
26/10:30am 17.4 14.6 10.1 62 3.9 WSW 15 22 8 12 1021.3 1021.3 0.0
26/10:00am 16.6 14.1 9.8 64 3.6 W 13 24 7 13 1021.4 1021.4 0.0
26/09:30am 15.9 14.2 9.8 67 3.2 WNW 9 17 5 9 1021.7 1021.7 0.0
26/09:00am 13.8 12.3 9.3 74 2.3 NW 7 11 4 6 1021.6 1021.6 0.0
26/08:30am 12.8 11.3 9.1 78 1.9 WNW 7 11 4 6 1021.6 1021.6 -
26/08:00am 11.8 9.7 8.3 79 1.7 WNW 9 15 5 8 1021.3 1021.3 -
26/07:30am 11.6 9.6 8.6 82 1.5 WNW 9 15 5 8 1021.1 1021.1 -
26/07:00am 10.7 9.7 8.8 88 0.9 WNW 4 7 2 4 1020.9 1020.9 -
26/06:30am 10.0 8.5 8.4 90 0.8 WNW 6 7 3 4 1020.7 1020.7 -
26/06:00am 9.5 8.3 7.9 90 0.8 W 4 7 2 4 1020.5 1020.5 -
26/05:30am 9.5 8.2 7.8 89 0.8 WNW 4 6 2 3 1020.3 1020.3 -
26/05:00am 9.6 7.9 7.7 88 0.9 W 6 9 3 5 1020.2 1020.2 -
26/04:30am 9.8 7.9 7.6 86 1.1 WNW 7 11 4 6 1020.1 1020.1 -
26/04:00am 9.9 8.0 7.5 85 1.1 NW 7 11 4 6 1020.0 1020.0 -
26/03:30am 9.8 8.0 7.2 84 1.2 NW 6 9 3 5 1020.1 1020.1 -
26/03:00am 10.0 8.2 7.3 83 1.3 NW 6 7 3 4 1020.2 1020.2 0.0
26/02:30am 10.5 8.2 7.4 81 1.5 NW 9 13 5 7 1020.4 1020.4 -
26/02:00am 10.4 8.4 7.3 81 1.5 NW 7 9 4 5 1020.6 1020.6 -
26/01:30am 10.5 8.5 7.0 79 1.7 WNW 7 9 4 5 1020.9 1020.9 -
26/01:00am 10.9 8.5 7.0 77 1.8 NW 9 13 5 7 1021.0 1021.0 -
26/12:30am 11.1 9.1 7.0 76 2.0 WNW 7 11 4 6 1021.2 1021.2 -
26/12:00am 11.4 9.4 7.3 76 2.0 WNW 7 9 4 5 1021.3 1021.3 -
 
Date/Time
EDT
Tmp

°C
App
Tmp
°C
Dew
Point
°C
Rel
Hum
%
Delta-T

°C
Wind Press
QNH
hPa
Press
MSL
hPa
Rain
since
9 am
mm
Dir
 
Spd
km/h
Gust
km/h
Spd
kts
Gust
kts
25/11:30pm 11.5 10.0 6.8 73 2.2 WNW 4 7 2 4 1021.4 1021.4 -
25/11:00pm 11.8 10.3 6.7 71 2.4 W 4 7 2 4 1021.7 1021.7 -
25/10:30pm 12.3 10.4 6.8 69 2.6 WNW 6 7 3 4 1021.6 1021.6 -
25/10:00pm 12.8 10.7 6.8 67 2.9 W 7 13 4 7 1021.6 1021.6 -
25/09:30pm 13.4 11.6 7.0 65 3.1 W 6 9 3 5 1021.5 1021.5 -
25/09:00pm 14.1 10.9 6.7 61 3.6 WSW 13 19 7 10 1021.1 1021.1 0.0
25/08:30pm 14.7 11.1 6.8 59 3.8 WSW 15 22 8 12 1020.9 1020.9 -
25/08:00pm 15.6 11.1 6.9 56 4.3 SW 20 28 11 15 1020.4 1020.4 -
25/07:30pm 16.9 12.9 6.7 51 5.0 WSW 17 30 9 16 1020.0 1020.0 -
25/07:00pm 17.6 12.2 6.5 48 5.5 WSW 24 35 13 19 1019.5 1019.5 -
25/06:30pm 18.6 13.1 6.1 44 6.2 WSW 24 37 13 20 1019.0 1019.0 -
25/06:00pm 19.0 13.6 6.5 44 6.2 WSW 24 32 13 17 1018.7 1018.7 -
25/05:30pm 19.8 14.8 6.5 42 6.7 WSW 22 33 12 18 1018.6 1018.6 -
25/05:00pm 19.7 13.9 6.1 41 6.7 W 26 37 14 20 1018.6 1018.6 -
25/04:30pm 19.2 14.0 5.3 40 6.8 W 22 32 12 17 1018.5 1018.5 -
25/04:00pm 20.3 15.1 5.5 38 7.3 W 22 33 12 18 1018.6 1018.6 -
25/03:30pm 19.0 13.0 5.5 41 6.6 W 26 39 14 21 1018.7 1018.7 -
25/03:00pm 19.6 13.3 5.6 40 6.9 W 28 44 15 24 1018.7 1018.7 10.0
25/02:30pm 19.3 14.6 6.1 42 6.5 W 20 35 11 19 1018.5 1018.5 -
25/02:00pm 19.1 13.2 5.9 42 6.5 W 26 39 14 21 1018.4 1018.4 -
25/01:30pm 18.5 12.9 7.3 48 5.7 WSW 26 35 14 19 1018.7 1018.7 -
25/01:00pm 18.6 13.2 6.4 45 6.0 W 24 37 13 20 1018.7 1018.7 -
25/12:30pm 17.5 11.5 7.0 50 5.2 W 28 39 15 21 1018.8 1018.8 -
25/09:00am 14.3 10.5 9.7 74 2.4 W 20 32 11 17 1018.1 1018.1 20.8
25/08:30am 13.4 9.7 9.5 77 2.0 WNW 19 30 10 16 1017.5 1017.5 20.8
25/08:00am 12.8 9.9 9.8 82 1.5 WNW 15 26 8 14 1017.1 1017.1 20.8
25/07:30am 11.6 7.6 9.0 84 1.3 WNW 20 33 11 18 1016.6 1016.6 20.8
25/07:00am 11.0 7.1 8.8 86 1.1 W 19 28 10 15 1016.2 1016.2 20.8
25/06:30am 10.5 7.0 8.8 89 0.8 WNW 17 26 9 14 1015.7 1015.7 20.8
25/06:00am 10.3 6.7 8.2 87 1.0 WNW 17 26 9 14 1015.6 1015.6 20.8
25/05:30am 10.2 6.5 8.0 86 1.1 WNW 17 30 9 16 1015.2 1015.2 20.8
25/05:00am 10.1 6.3 7.7 85 1.2 WNW 17 30 9 16 1014.8 1014.8 20.8
25/04:30am 10.1 6.7 7.7 85 1.2 WNW 15 20 8 11 1014.5 1014.5 20.8
25/04:00am 10.2 6.5 7.8 85 1.2 WNW 17 24 9 13 1014.6 1014.6 20.8
25/03:30am 10.4 6.3 7.8 84 1.3 WNW 19 33 10 18 1014.5 1014.5 20.8
25/03:00am 10.5 7.9 7.7 83 1.3 WNW 11 20 6 11 1014.5 1014.5 20.8
25/02:30am 10.8 7.4 7.7 81 1.5 W 15 24 8 13 1014.6 1014.6 20.8
25/02:00am 11.1 7.8 8.1 82 1.5 WNW 15 26 8 14 1014.1 1014.1 20.8
25/01:30am 11.1 8.2 8.0 81 1.5 WNW 13 20 7 11 1014.2 1014.2 20.8
25/01:00am 11.1 8.9 8.0 81 1.5 WNW 9 17 5 9 1014.2 1014.2 20.8
25/12:30am 11.2 9.1 8.1 81 1.5 W 9 17 5 9 1014.1 1014.1 20.8
25/12:00am 11.1 9.3 8.1 82 1.5 W 7 11 4 6 1014.1 1014.1 20.8
 
Date/Time
EDT
Tmp

°C
App
Tmp
°C
Dew
Point
°C
Rel
Hum
%
Delta-T

°C
Wind Press
QNH
hPa
Press
MSL
hPa
Rain
since
9 am
mm
Dir
 
Spd
km/h
Gust
km/h
Spd
kts
Gust
kts
24/11:30pm 11.3 10.0 7.8 79 1.7 W 4 6 2 3 1013.8 1013.8 20.8
24/11:00pm 11.9 10.0 7.6 75 2.1 W 7 9 4 5 1013.6 1013.6 20.8
24/10:30pm 12.7 10.0 7.4 70 2.6 W 11 17 6 9 1013.6 1013.6 20.8
24/10:00pm 13.2 9.4 7.4 68 2.8 W 17 28 9 15 1013.4 1013.4 20.8
24/09:30pm 13.4 9.8 8.3 71 2.5 W 17 26 9 14 1012.9 1012.9 20.8
24/09:00pm 13.3 11.9 10.8 85 1.3 W 9 15 5 8 1012.4 1012.4 20.8
24/08:30pm 13.9 11.2 10.5 80 1.8 WSW 15 20 8 11 1011.9 1011.9 20.8
24/08:00pm 14.6 10.9 10.2 75 2.3 WSW 20 33 11 18 1011.4 1011.4 20.8
24/07:30pm 14.8 11.8 10.8 77 2.1 W 17 32 9 17 1011.0 1011.0 20.8
24/07:00pm 14.7 12.2 11.1 79 1.9 W 15 22 8 12 1010.4 1010.4 20.8
24/06:30pm 15.0 12.5 11.2 78 2.0 W 15 24 8 13 1009.5 1009.5 20.8
24/06:00pm 15.5 9.9 12.1 80 1.9 WSW 33 48 18 26 1008.5 1008.5 20.8
24/05:57pm 15.7 10.1 12.1 79 2.0 WSW 33 48 18 26 1008.4 1008.4 20.8
24/05:30pm 16.7 14.2 14.0 84 1.5 SSW 20 28 11 15 1007.6 1007.6 20.8
24/05:00pm 18.1 16.1 13.8 76 2.5 S 17 26 9 14 1006.9 1006.9 20.8
24/04:30pm 19.0 17.8 15.1 78 2.3 WSW 15 22 8 12 1006.9 1006.9 20.8
24/04:00pm 17.4 16.6 16.1 92 0.8 W 15 22 8 12 1006.9 1006.9 20.8
24/03:30pm 16.9 14.9 15.6 92 0.8 WSW 20 28 11 15 1007.1 1007.1 20.8
24/03:00pm 16.9 15.0 15.8 93 0.6 W 20 37 11 20 1006.8 1006.8 20.8
24/02:30pm 17.2 16.4 16.2 94 0.6 WNW 15 22 8 12 1006.8 1006.8 20.6
24/02:00pm 16.9 17.5 15.9 94 0.6 NW 7 13 4 7 1007.2 1007.2 20.6
24/01:30pm 16.5 17.0 15.5 94 0.6 N 7 9 4 5 1007.0 1007.0 17.8
24/01:00pm 16.7 17.3 15.7 94 0.6 NNW 7 11 4 6 1007.5 1007.5 14.0
24/12:30pm 16.4 16.1 15.4 94 0.6 N 11 19 6 10 1007.7 1007.7 12.0
24/12:00pm 16.1 15.3 15.1 94 0.6 NNE 13 20 7 11 1008.2 1008.2 10.2
24/11:30am 15.8 15.2 14.7 93 0.6 N 11 19 6 10 1009.5 1009.5 8.0
24/11:00am 16.0 15.5 14.9 93 0.6 ENE 11 15 6 8 1008.4 1008.4 3.2
24/10:30am 16.2 16.5 14.9 92 0.7 NW 7 11 4 6 1010.0 1010.0 1.0
24/10:00am 16.5 17.8 15.2 92 0.8 NE 2 4 1 2 1009.1 1009.1 0.6
24/09:30am 16.3 17.5 14.8 91 0.9 E 2 7 1 4 1009.0 1009.0 0.0
24/09:00am 16.3 16.7 13.8 85 1.4 SE 4 7 2 4 1009.3 1009.3 0.0
24/08:30am 15.8 15.9 13.8 88 1.1 S 6 9 3 5 1009.7 1009.7 0.0
24/08:00am 15.6 14.1 13.1 85 1.4 WSW 13 20 7 11 1010.6 1010.6 0.0
24/07:58am 15.5 14.0 13.0 85 1.4 WSW 13 20 7 11 1010.6 1010.6 0.0
24/07:30am 14.7 14.1 12.4 86 1.3 SW 7 15 4 8 1008.5 1008.5 0.0
24/07:00am 14.5 14.0 12.0 85 1.4 S 6 7 3 4 1007.5 1007.5 0.0
24/06:30am 13.9 14.6 12.1 89 1.0 CALM 0 0 0 0 1007.7 1007.7 0.0
24/06:00am 13.8 14.4 11.8 88 1.1 CALM 0 0 0 0 1007.8 1007.8 0.0
24/05:30am 13.7 13.8 11.4 86 1.2 WSW 2 4 1 2 1008.0 1008.0 0.0
24/05:00am 13.4 13.6 10.4 82 1.6 CALM 0 0 0 0 1008.6 1008.6 0.0
24/04:30am 13.4 13.1 10.2 81 1.7 S 2 2 1 1 1008.5 1008.5 0.0
24/04:00am 13.8 12.7 10.6 81 1.7 SSW 7 9 4 5 1008.9 1008.9 0.0
24/03:30am 13.3 12.2 9.9 80 1.7 SSW 6 9 3 5 1009.7 1009.7 0.0
24/03:00am 13.5 12.3 9.7 78 2.0 S 6 7 3 4 1010.1 1010.1 0.0
24/02:30am 13.2 13.2 9.8 80 1.7 CALM 0 0 0 0 1010.5 1010.5 0.0
24/02:00am 13.5 13.3 9.0 74 2.3 CALM 0 0 0 0 1010.8 1010.8 0.0
24/01:30am 13.7 13.0 8.7 72 2.5 SSE 2 2 1 1 1011.4 1011.4 0.0
24/01:00am 14.7 13.8 9.1 69 2.9 S 4 4 2 2 1011.8 1011.8 0.0
24/12:30am 15.3 14.7 9.0 66 3.2 SE 2 4 1 2 1012.3 1012.3 0.0
24/12:00am 15.9 15.3 8.9 63 3.6 E 2 6 1 3 1012.9 1012.9 0.0
 
Date/Time
EDT
Tmp

°C
App
Tmp
°C
Dew
Point
°C
Rel
Hum
%
Delta-T

°C
Wind Press
QNH
hPa
Press
MSL
hPa
Rain
since
9 am
mm
Dir
 
Spd
km/h
Gust
km/h
Spd
kts
Gust
kts
23/11:30pm 16.2 15.1 8.4 60 4.0 E 4 6 2 3 1013.2 1013.2 0.0
23/11:00pm 16.0 15.0 8.7 62 3.7 E 4 7 2 4 1013.6 1013.6 0.0
23/10:30pm 15.9 14.8 8.4 61 3.8 E 4 6 2 3 1013.8 1013.8 0.0

Latest Capital City Observations: Canberra | Sydney | Melbourne | Brisbane | Adelaide | Perth | Hobart | Darwin

Other Formats:

Comma delimited format used in spreadsheet applications
http://www.bom.gov.au/fwo/IDV60901/IDV60901.94857.axf

JavaScript Object Notation format (JSON) in row-major order
http://www.bom.gov.au/fwo/IDV60901/IDV60901.94857.json